Time;durP1;ratioP1;P1;durP2;ratioP2;P2;SDS_P1;SDS_P2;PMS_P1;PMS_P2;Temp;Humidity;BMP_temperature;BMP_pressure;BME280_temperature;BME280_humidity;BME280_pressure;Samples;Min_cycle;Max_cycle;Signal;HPM_P1;HPM_P2
2023/04/21 00:02:14;;;;;;;16.95;6.70;;;;;;;;;;6312635;22;20045;-87
2023/04/21 00:04:45;;;;;;;17.73;7.50;;;;;;;;;;6287388;22;20355;-86
2023/04/21 00:07:13;;;;;;;15.95;7.22;;;;;;;;;;6314819;22;20514;-86
2023/04/21 00:09:47;;;;;;;17.17;6.80;;;;;;;;;;6301533;22;20100;-86
2023/04/21 00:12:40;;;;;;;14.77;6.45;;;;;;;;;;6312411;22;20018;-87
2023/04/21 00:15:39;;;;;;;16.33;6.35;;;;;;;;;;6315305;22;20018;-86
2023/04/21 00:18:07;;;;;;;17.67;5.97;;;;;;;;;;6278729;22;20023;-86
2023/04/21 00:20:45;;;;;;;15.68;6.70;;;;;;;;;;6314829;22;20021;-86
2023/04/21 00:23:13;;;;;;;14.80;6.78;;;;;;;;;;6315962;22;20482;-87
2023/04/21 00:25:45;;;;;;;16.55;6.60;;;;;;;;;;6302695;22;20023;-86
2023/04/21 00:28:13;;;;;;;16.58;6.28;;;;;;;;;;6315373;22;20093;-86
2023/04/21 00:31:05;;;;;;;13.98;6.80;;;;;;;;;;6306095;22;20018;-86
2023/04/21 00:33:37;;;;;;;15.38;6.75;;;;;;;;;;6315359;22;20015;-86
2023/04/21 00:36:05;;;;;;;16.55;6.68;;;;;;;;;;6277968;22;20827;-87
2023/04/21 00:38:33;;;;;;;15.98;7.00;;;;;;;;;;6313043;22;20019;-87
2023/04/21 00:41:27;;;;;;;17.40;6.82;;;;;;;;;;6303496;22;20029;-87
2023/04/21 00:44:05;;;;;;;13.80;6.55;;;;;;;;;;6315196;22;20459;-86
2023/04/21 00:46:33;;;;;;;16.20;7.45;;;;;;;;;;6313100;22;20019;-87
2023/04/21 00:49:07;;;;;;;15.10;6.68;;;;;;;;;;6312465;22;20026;-86
2023/04/21 00:51:36;;;;;;;17.23;7.57;;;;;;;;;;6314462;22;20015;-87
2023/04/21 00:54:29;;;;;;;13.20;6.13;;;;;;;;;;6314842;22;20375;-86
2023/04/21 00:57:00;;;;;;;13.80;6.60;;;;;;;;;;6312746;22;20054;-86
2023/04/21 00:59:29;;;;;;;16.13;7.00;;;;;;;;;;6311807;22;20026;-86
2023/04/21 01:01:57;;;;;;;17.35;7.10;;;;;;;;;;6311209;22;20455;-86
2023/04/21 01:04:25;;;;;;;17.30;7.15;;;;;;;;;;6314641;22;20034;-87
2023/04/21 01:06:53;;;;;;;11.75;6.57;;;;;;;;;;6313241;22;20081;-86
2023/04/21 01:09:21;;;;;;;11.25;6.30;;;;;;;;;;6313460;22;20522;-86
2023/04/21 01:12:08;;;;;;;15.85;6.70;;;;;;;;;;6314580;22;20039;-87
2023/04/21 01:15:01;;;;;;;13.13;5.82;;;;;;;;;;6314351;22;20026;-87
2023/04/21 01:17:30;;;;;;;14.82;7.10;;;;;;;;;;6287732;22;20019;-87
2023/04/21 01:20:00;;;;;;;18.30;7.13;;;;;;;;;;6302484;22;20023;-88
2023/04/21 01:22:30;;;;;;;13.80;7.15;;;;;;;;;;6312315;22;20098;-86
2023/04/21 01:25:04;;;;;;;18.50;6.65;;;;;;;;;;6314017;22;20395;-87
2023/04/21 01:27:33;;;;;;;14.52;6.47;;;;;;;;;;6313421;22;20019;-87
2023/04/21 01:30:01;;;;;;;17.63;6.40;;;;;;;;;;6313153;22;20019;-88
2023/04/21 01:32:30;;;;;;;10.48;6.05;;;;;;;;;;6315087;22;20057;-88
2023/04/21 01:35:03;;;;;;;13.13;6.05;;;;;;;;;;6314563;22;20029;-87
2023/04/21 01:37:32;;;;;;;18.02;6.80;;;;;;;;;;6314323;22;20015;-87
2023/04/21 01:40:04;;;;;;;17.63;6.95;;;;;;;;;;6313619;22;20069;-86
2023/04/21 01:42:57;;;;;;;17.52;6.82;;;;;;;;;;6293104;22;20003;-87
2023/04/21 01:45:30;;;;;;;15.75;6.65;;;;;;;;;;6288983;22;20015;-87
2023/04/21 01:47:57;;;;;;;18.38;6.82;;;;;;;;;;6314666;22;20019;-86
2023/04/21 01:50:25;;;;;;;13.77;5.65;;;;;;;;;;6314190;22;20123;-87
2023/04/21 01:52:53;;;;;;;14.65;6.60;;;;;;;;;;6313776;22;20012;-86
2023/04/21 01:55:21;;;;;;;12.60;6.57;;;;;;;;;;6277398;22;20019;-87
2023/04/21 01:58:15;;;;;;;17.27;6.15;;;;;;;;;;6314186;22;20026;-87
2023/04/21 02:00:43;;;;;;;12.80;6.40;;;;;;;;;;6312529;22;20038;-87
2023/04/21 02:03:11;;;;;;;16.08;6.63;;;;;;;;;;6312695;22;20039;-87
2023/04/21 02:05:45;;;;;;;16.63;7.72;;;;;;;;;;6313075;22;20035;-87
2023/04/21 02:08:13;;;;;;;13.93;6.15;;;;;;;;;;6312656;22;20026;-86
2023/04/21 02:10:46;;;;;;;15.68;6.53;;;;;;;;;;6313703;22;20459;-87
2023/04/21 02:13:13;;;;;;;13.27;6.95;;;;;;;;;;6301792;22;20019;-87
2023/04/21 02:15:41;;;;;;;13.30;6.75;;;;;;;;;;6312492;22;20018;-88
2023/04/21 02:18:09;;;;;;;14.80;6.43;;;;;;;;;;6312641;22;20026;-87
2023/04/21 02:20:37;;;;;;;14.48;6.93;;;;;;;;;;6312399;22;20371;-87
2023/04/21 02:23:09;;;;;;;12.13;6.28;;;;;;;;;;6312564;22;20064;-86
2023/04/21 02:25:37;;;;;;;15.85;6.28;;;;;;;;;;6313428;22;20026;-87
2023/04/21 02:28:05;;;;;;;15.05;5.90;;;;;;;;;;6314720;22;20355;-87
2023/04/21 02:30:33;;;;;;;12.68;6.32;;;;;;;;;;6312664;22;20019;-86
2023/04/21 02:33:01;;;;;;;12.20;6.18;;;;;;;;;;6313702;22;20026;-87
2023/04/21 02:35:29;;;;;;;12.00;5.88;;;;;;;;;;6312461;22;20494;-87
2023/04/21 02:37:57;;;;;;;15.40;6.40;;;;;;;;;;6276606;22;20050;-87
2023/04/21 02:40:49;;;;;;;10.77;5.30;;;;;;;;;;6312811;22;20026;-88
2023/04/21 02:43:28;;;;;;;13.35;5.32;;;;;;;;;;6314441;22;20011;-87
2023/04/21 02:45:57;;;;;;;13.45;5.70;;;;;;;;;;6312358;22;20015;-87
2023/04/21 02:48:49;;;;;;;18.15;6.10;;;;;;;;;;6314436;22;20027;-87
2023/04/21 02:51:17;;;;;;;14.40;6.00;;;;;;;;;;6311926;22;20029;-87
2023/04/21 02:53:49;;;;;;;14.85;6.05;;;;;;;;;;6287805;22;20440;-87
2023/04/21 02:56:17;;;;;;;17.13;5.95;;;;;;;;;;6314449;22;20098;-87
2023/04/21 02:58:45;;;;;;;16.30;6.18;;;;;;;;;;6287702;22;20064;-87
2023/04/21 03:01:17;;;;;;;16.77;6.47;;;;;;;;;;6305485;22;20019;-88
2023/04/21 03:03:45;;;;;;;11.00;6.03;;;;;;;;;;6313959;22;20039;-88
2023/04/21 03:06:13;;;;;;;13.50;6.22;;;;;;;;;;6252653;22;20026;-88
2023/04/21 03:09:05;;;;;;;13.70;6.28;;;;;;;;;;6314174;22;20363;-86
2023/04/21 03:11:40;;;;;;;21.80;6.85;;;;;;;;;;6302071;22;20019;-87
2023/04/21 03:14:12;;;;;;;14.45;7.03;;;;;;;;;;6316371;22;20019;-87
2023/04/21 03:16:46;;;;;;;14.18;6.05;;;;;;;;;;6314823;22;20058;-87
2023/04/21 03:19:13;;;;;;;15.32;6.70;;;;;;;;;;6278793;22;20019;-87
2023/04/21 03:21:41;;;;;;;11.02;6.38;;;;;;;;;;6316079;22;20031;-87
2023/04/21 03:24:09;;;;;;;13.10;5.38;;;;;;;;;;6314659;22;20431;-87
2023/04/21 03:26:39;;;;;;;13.23;5.80;;;;;;;;;;6315323;22;20023;-87
2023/04/21 03:29:07;;;;;;;12.50;5.78;;;;;;;;;;6315118;22;20449;-86
2023/04/21 03:31:35;;;;;;;9.95;5.85;;;;;;;;;;6303723;22;20023;-86
2023/04/21 03:34:03;;;;;;;11.50;6.30;;;;;;;;;;6303923;22;20483;-87
2023/04/21 03:36:35;;;;;;;14.77;6.10;;;;;;;;;;6254413;22;20486;-86
2023/04/21 03:39:03;;;;;;;14.63;6.35;;;;;;;;;;6315666;22;20015;-87
2023/04/21 03:41:55;;;;;;;17.67;6.38;;;;;;;;;;6314654;22;20676;-86
2023/04/21 03:44:29;;;;;;;12.60;6.22;;;;;;;;;;6290610;22;20015;-87
2023/04/21 03:49:51;;;;;;;13.07;5.78;;;;;;;;;;6314715;22;20084;-87
2023/04/21 03:52:19;;;;;;;9.93;5.10;;;;;;;;;;6316422;22;20027;-87
2023/04/21 03:54:47;;;;;;;19.77;6.72;;;;;;;;;;6315702;22;20007;-86
2023/04/21 03:57:15;;;;;;;14.43;6.72;;;;;;;;;;6289331;22;20367;-87
2023/04/21 03:59:43;;;;;;;12.88;5.97;;;;;;;;;;6303140;22;20058;-87
2023/04/21 04:02:11;;;;;;;14.75;5.60;;;;;;;;;;6313513;22;20019;-87
2023/04/21 04:04:39;;;;;;;16.10;6.43;;;;;;;;;;6314353;22;20015;-87
2023/04/21 04:07:08;;;;;;;12.75;6.00;;;;;;;;;;6315675;22;20061;-87
2023/04/21 04:09:37;;;;;;;11.70;5.78;;;;;;;;;;6313546;22;20503;-87
2023/04/21 04:12:09;;;;;;;17.67;6.68;;;;;;;;;;6301929;22;20027;-87
2023/04/21 04:14:39;;;;;;;11.32;5.28;;;;;;;;;;6313270;22;20438;-87
2023/04/21 04:17:12;;;;;;;12.73;5.75;;;;;;;;;;6315283;22;20092;-87
2023/04/21 04:19:39;;;;;;;14.95;6.10;;;;;;;;;;6315451;22;20011;-87
2023/04/21 04:22:07;;;;;;;13.55;6.38;;;;;;;;;;6313604;22;20779;-87
2023/04/21 04:24:35;;;;;;;10.80;6.35;;;;;;;;;;6302503;22;20084;-86
2023/04/21 04:27:03;;;;;;;14.75;7.22;;;;;;;;;;6315198;22;20019;-86
2023/04/21 04:29:35;;;;;;;12.80;6.90;;;;;;;;;;6315174;22;20647;-87
2023/04/21 04:32:05;;;;;;;10.65;5.75;;;;;;;;;;6314592;22;20023;-86
2023/04/21 04:34:36;;;;;;;11.52;6.40;;;;;;;;;;6313346;22;20556;-87
2023/04/21 04:37:09;;;;;;;12.35;6.45;;;;;;;;;;6314863;22;20023;-86
2023/04/21 04:39:37;;;;;;;12.23;6.35;;;;;;;;;;6304122;22;20019;-87
2023/04/21 04:42:08;;;;;;;10.85;5.78;;;;;;;;;;6314013;22;20503;-87
2023/04/21 04:44:37;;;;;;;14.70;6.28;;;;;;;;;;6303429;22;20026;-88
2023/04/21 04:47:09;;;;;;;14.35;6.85;;;;;;;;;;6302314;22;20023;-87
2023/04/21 04:49:37;;;;;;;9.90;5.53;;;;;;;;;;6314170;22;20860;-87
2023/04/21 04:52:36;;;;;;;11.25;6.03;;;;;;;;;;6314417;22;20023;-87
2023/04/21 04:55:03;;;;;;;11.93;6.07;;;;;;;;;;6314915;22;20019;-87
2023/04/21 04:57:31;;;;;;;16.20;6.60;;;;;;;;;;6315088;22;20015;-87
2023/04/21 04:59:59;;;;;;;14.23;6.78;;;;;;;;;;6315100;22;20718;-87
2023/04/21 05:02:31;;;;;;;13.32;6.10;;;;;;;;;;6313974;22;20019;-87
2023/04/21 05:04:59;;;;;;;13.88;6.97;;;;;;;;;;6314325;22;20019;-87
2023/04/21 05:07:30;;;;;;;12.23;6.07;;;;;;;;;;6313192;22;20790;-86
2023/04/21 05:10:04;;;;;;;14.25;6.07;;;;;;;;;;6313193;22;20072;-86
2023/04/21 05:12:31;;;;;;;13.65;6.10;;;;;;;;;;6301254;22;20023;-86
2023/04/21 05:14:59;;;;;;;11.32;6.00;;;;;;;;;;6313499;22;20643;-86
2023/04/21 05:17:29;;;;;;;11.25;5.90;;;;;;;;;;6313929;22;20022;-85
2023/04/21 05:20:23;;;;;;;12.32;6.07;;;;;;;;;;6312465;22;20588;-86
2023/04/21 05:22:51;;;;;;;14.70;6.20;;;;;;;;;;6312158;22;20015;-85
2023/04/21 05:25:19;;;;;;;15.52;6.95;;;;;;;;;;6251135;22;20050;-87
2023/04/21 05:27:47;;;;;;;15.35;6.72;;;;;;;;;;6313391;22;20019;-86
2023/04/21 05:30:15;;;;;;;13.43;6.03;;;;;;;;;;6310412;22;20015;-87
2023/04/21 05:32:43;;;;;;;14.18;6.25;;;;;;;;;;6311289;22;20023;-88
2023/04/21 05:35:11;;;;;;;14.82;6.25;;;;;;;;;;6275722;22;20029;-88
2023/04/21 05:37:39;;;;;;;15.80;7.03;;;;;;;;;;6313084;22;20019;-87
2023/04/21 05:40:07;;;;;;;12.93;6.50;;;;;;;;;;6314153;22;20042;-88
2023/04/21 05:42:35;;;;;;;13.05;5.78;;;;;;;;;;6311826;22;20495;-88
2023/04/21 05:45:03;;;;;;;13.82;6.05;;;;;;;;;;6311539;22;20592;-88
2023/04/21 05:47:31;;;;;;;13.90;5.80;;;;;;;;;;6300610;22;20019;-88
2023/04/21 05:49:59;;;;;;;13.30;6.25;;;;;;;;;;6275617;22;20050;-86
2023/04/21 05:52:27;;;;;;;16.52;6.38;;;;;;;;;;6311075;22;20019;-87
2023/04/21 05:54:59;;;;;;;11.70;5.80;;;;;;;;;;6311729;22;20019;-87
2023/04/21 05:57:27;;;;;;;14.15;6.65;;;;;;;;;;6312026;22;20045;-86
2023/04/21 05:59:55;;;;;;;10.63;6.57;;;;;;;;;;6311713;22;20022;-87
2023/04/21 06:02:25;;;;;;;11.98;7.05;;;;;;;;;;6298561;22;20023;-87
2023/04/21 06:04:53;;;;;;;11.45;5.82;;;;;;;;;;6312371;22;20455;-87
2023/04/21 06:07:21;;;;;;;11.15;5.45;;;;;;;;;;6310826;22;20019;-86
2023/04/21 06:09:50;;;;;;;11.20;6.10;;;;;;;;;;6274827;22;20022;-87
2023/04/21 06:12:28;;;;;;;17.92;6.57;;;;;;;;;;6312881;22;20020;-87
2023/04/21 06:14:56;;;;;;;17.35;6.70;;;;;;;;;;6310517;22;20011;-87
2023/04/21 06:17:25;;;;;;;11.73;6.32;;;;;;;;;;6311549;22;20065;-86
2023/04/21 06:19:56;;;;;;;12.90;5.45;;;;;;;;;;6310572;22;20404;-87
2023/04/21 06:22:23;;;;;;;10.20;4.95;;;;;;;;;;6285891;22;20015;-88
2023/04/21 06:25:21;;;;;;;11.35;6.15;;;;;;;;;;6302035;22;20105;-86
2023/04/21 06:27:49;;;;;;;13.85;5.75;;;;;;;;;;6277194;22;20030;-87
2023/04/21 06:30:17;;;;;;;11.13;5.53;;;;;;;;;;6311774;22;20019;-88
2023/04/21 06:32:49;;;;;;;11.38;5.35;;;;;;;;;;6270069;22;20082;-86
2023/04/21 06:35:17;;;;;;;11.60;5.78;;;;;;;;;;6275130;22;20047;-87
2023/04/21 06:37:51;;;;;;;11.25;6.53;;;;;;;;;;6275365;22;20023;-87
2023/04/21 06:40:19;;;;;;;11.82;6.35;;;;;;;;;;6312765;22;20015;-86
2023/04/21 06:42:51;;;;;;;12.77;6.13;;;;;;;;;;6274556;22;20474;-87
2023/04/21 06:45:19;;;;;;;10.80;6.20;;;;;;;;;;6311722;22;20012;-88
2023/04/21 06:47:47;;;;;;;11.20;6.32;;;;;;;;;;6309061;22;20019;-86
2023/04/21 06:50:15;;;;;;;12.85;6.90;;;;;;;;;;6312122;22;20019;-86
2023/04/21 06:52:43;;;;;;;11.52;5.53;;;;;;;;;;6273664;22;20115;-88
2023/04/21 06:55:11;;;;;;;10.77;5.45;;;;;;;;;;6301531;22;20015;-86
2023/04/21 06:57:39;;;;;;;14.35;6.10;;;;;;;;;;6301269;22;20023;-87
2023/04/21 07:00:07;;;;;;;12.38;5.82;;;;;;;;;;6285509;22;20037;-86
2023/04/21 07:02:35;;;;;;;10.55;5.82;;;;;;;;;;6309473;22;20102;-87
2023/04/21 07:05:04;;;;;;;8.63;5.13;;;;;;;;;;6300979;22;20393;-87
2023/04/21 07:07:33;;;;;;;12.85;5.50;;;;;;;;;;6313322;22;20483;-88
2023/04/21 07:10:01;;;;;;;7.18;3.75;;;;;;;;;;6313869;22;20023;-85
2023/04/21 07:12:39;;;;;;;9.75;5.45;;;;;;;;;;6289541;22;20019;-87
2023/04/21 07:15:11;;;;;;;13.23;6.00;;;;;;;;;;6280196;22;20020;-87
2023/04/21 07:17:44;;;;;;;8.98;4.00;;;;;;;;;;6242993;22;20030;-87
2023/04/21 07:20:11;;;;;;;13.48;5.90;;;;;;;;;;6279304;22;20027;-87
2023/04/21 07:22:42;;;;;;;10.15;5.32;;;;;;;;;;6280395;22;20043;-88
2023/04/21 07:25:15;;;;;;;12.70;5.65;;;;;;;;;;6278700;22;20530;-87
2023/04/21 07:27:43;;;;;;;14.30;5.75;;;;;;;;;;6244329;22;20114;-87
2023/04/21 07:30:11;;;;;;;8.55;4.35;;;;;;;;;;6280249;22;20027;-86
2023/04/21 07:32:39;;;;;;;8.98;5.53;;;;;;;;;;6276017;22;20020;-86
2023/04/21 07:35:07;;;;;;;14.55;5.32;;;;;;;;;;6281165;22;20026;-87
2023/04/21 07:37:35;;;;;;;10.85;5.75;;;;;;;;;;6219682;22;20039;-86
2023/04/21 07:40:03;;;;;;;11.18;5.38;;;;;;;;;;6267748;22;20024;-86
2023/04/21 07:42:37;;;;;;;11.10;5.22;;;;;;;;;;6277392;22;20024;-88
2023/04/21 07:45:29;;;;;;;11.95;5.78;;;;;;;;;;6284378;22;20087;-88
2023/04/21 07:48:01;;;;;;;10.18;5.60;;;;;;;;;;6311848;22;20019;-87
2023/04/21 07:50:29;;;;;;;13.77;5.25;;;;;;;;;;6313790;22;20639;-87
2023/04/21 07:53:01;;;;;;;12.48;5.53;;;;;;;;;;6314303;22;20033;-87
2023/04/21 07:55:29;;;;;;;12.45;5.43;;;;;;;;;;6275436;22;20061;-87
2023/04/21 07:57:57;;;;;;;12.73;6.32;;;;;;;;;;6286770;22;20348;-87
2023/04/21 08:00:49;;;;;;;9.18;5.22;;;;;;;;;;6307447;22;20043;-87
2023/04/21 08:03:17;;;;;;;11.18;5.53;;;;;;;;;;6310624;22;20021;-87
2023/04/21 08:05:45;;;;;;;14.18;5.65;;;;;;;;;;6275588;22;20016;-86
2023/04/21 08:08:19;;;;;;;8.52;5.10;;;;;;;;;;6277241;22;20106;-87
2023/04/21 08:10:51;;;;;;;17.17;5.60;;;;;;;;;;6275297;22;20031;-87
2023/04/21 08:13:37;;;;;;;11.93;5.72;;;;;;;;;;6312184;22;20011;-88
2023/04/21 08:16:11;;;;;;;12.52;5.30;;;;;;;;;;6252455;22;20019;-87
2023/04/21 08:18:57;;;;;;;11.93;6.15;;;;;;;;;;6315328;22;20007;-87
2023/04/21 08:22:14;;;;;;;10.20;5.65;;;;;;;;;;6282850;22;20068;-88
2023/04/21 08:24:43;;;;;;;10.25;6.30;;;;;;;;;;6311200;22;20023;-88
2023/04/21 08:27:15;;;;;;;12.63;5.60;;;;;;;;;;6288165;22;20011;-87
2023/04/21 08:29:45;;;;;;;11.48;5.45;;;;;;;;;;6312834;22;20018;-87
2023/04/21 08:32:37;;;;;;;9.85;5.22;;;;;;;;;;6310176;22;20018;-87
2023/04/21 08:35:05;;;;;;;10.88;5.47;;;;;;;;;;6303020;22;20015;-88
2023/04/21 08:37:35;;;;;;;12.68;5.82;;;;;;;;;;6313228;22;20490;-88
2023/04/21 08:40:09;;;;;;;9.80;5.80;;;;;;;;;;6313377;22;20035;-87
2023/04/21 08:42:37;;;;;;;11.93;5.82;;;;;;;;;;6313838;22;20042;-88
2023/04/21 08:45:11;;;;;;;11.63;5.80;;;;;;;;;;6313939;22;20019;-86
2023/04/21 08:47:40;;;;;;;11.68;5.10;;;;;;;;;;6310971;22;20050;-87
2023/04/21 08:50:13;;;;;;;16.90;5.70;;;;;;;;;;6313076;22;20023;-87
2023/04/21 08:52:47;;;;;;;12.00;6.13;;;;;;;;;;6314144;22;20015;-87
2023/04/21 08:55:19;;;;;;;11.45;5.57;;;;;;;;;;6312803;22;20457;-87
2023/04/21 08:57:47;;;;;;;10.75;5.53;;;;;;;;;;6312011;22;20023;-88
2023/04/21 09:00:15;;;;;;;11.10;5.85;;;;;;;;;;6312774;22;20015;-87
2023/04/21 09:02:57;;;;;;;11.20;5.35;;;;;;;;;;6311039;22;20023;-88
2023/04/21 09:05:31;;;;;;;11.80;5.53;;;;;;;;;;6310920;22;20022;-88
2023/04/21 09:08:12;;;;;;;9.30;5.53;;;;;;;;;;6314849;22;20011;-88
2023/04/21 09:11:05;;;;;;;10.73;5.45;;;;;;;;;;6313079;22;20019;-88
2023/04/21 09:13:36;;;;;;;12.77;6.35;;;;;;;;;;6311197;22;20030;-88
2023/04/21 09:16:17;;;;;;;13.45;5.60;;;;;;;;;;6284326;22;20012;-88
2023/04/21 09:18:45;;;;;;;10.32;5.28;;;;;;;;;;6312272;22;20019;-87
2023/04/21 09:21:18;;;;;;;10.90;5.43;;;;;;;;;;6314113;22;20011;-87
2023/04/21 09:24:12;;;;;;;9.57;5.47;;;;;;;;;;6311844;22;20018;-87
2023/04/21 09:26:41;;;;;;;9.57;5.43;;;;;;;;;;6311514;22;20019;-88
2023/04/21 09:29:09;;;;;;;8.98;5.47;;;;;;;;;;6311310;22;20842;-87
2023/04/21 09:31:37;;;;;;;9.38;4.97;;;;;;;;;;6307235;22;20042;-88
2023/04/21 09:34:17;;;;;;;11.88;5.82;;;;;;;;;;6314079;22;20015;-88
2023/04/21 09:37:06;;;;;;;13.07;5.72;;;;;;;;;;6311021;22;20011;-88
2023/04/21 09:39:35;;;;;;;9.73;5.50;;;;;;;;;;6313164;22;20038;-88
2023/04/21 09:42:28;;;;;;;12.32;5.88;;;;;;;;;;6311526;22;20014;-89
2023/04/21 09:45:01;;;;;;;10.65;5.47;;;;;;;;;;6314171;22;20086;-88
2023/04/21 09:48:00;;;;;;;11.02;5.50;;;;;;;;;;6310481;22;20557;-88
2023/04/21 09:50:33;;;;;;;10.75;5.35;;;;;;;;;;6314227;22;20022;-88
2023/04/21 09:53:27;;;;;;;9.60;5.45;;;;;;;;;;6311494;22;20023;-87
2023/04/21 09:55:57;;;;;;;11.82;5.68;;;;;;;;;;6311565;22;20008;-87
2023/04/21 09:58:32;;;;;;;11.07;5.30;;;;;;;;;;6310088;22;20385;-87
2023/04/21 10:01:28;;;;;;;8.77;4.68;;;;;;;;;;6311031;22;20023;-86
2023/04/21 10:04:01;;;;;;;7.72;4.47;;;;;;;;;;6310973;22;20015;-86
2023/04/21 10:06:29;;;;;;;10.68;5.85;;;;;;;;;;6309879;22;20022;-88
2023/04/21 10:09:04;;;;;;;11.05;5.70;;;;;;;;;;6299346;22;20455;-87
2023/04/21 10:11:33;;;;;;;8.43;4.93;;;;;;;;;;6296182;22;20031;-87
2023/04/21 10:14:02;;;;;;;9.63;5.40;;;;;;;;;;6316594;22;20011;-87
2023/04/21 10:17:09;;;;;;;10.25;5.63;;;;;;;;;;6312099;22;20090;-88
2023/04/21 10:19:52;;;;;;;10.60;5.57;;;;;;;;;;6302236;22;20015;-88
2023/04/21 10:22:34;;;;;;;11.20;6.10;;;;;;;;;;6314366;22;20015;-88
2023/04/21 10:25:28;;;;;;;10.10;6.10;;;;;;;;;;6311571;22;20025;-87
2023/04/21 10:27:57;;;;;;;7.82;5.03;;;;;;;;;;6309307;22;20015;-87
2023/04/21 10:30:25;;;;;;;10.02;5.40;;;;;;;;;;6304559;22;20130;-87
2023/04/21 10:33:03;;;;;;;10.50;5.80;;;;;;;;;;6309025;22;20485;-87
2023/04/21 10:36:00;;;;;;;10.13;5.60;;;;;;;;;;6278474;22;20015;-87
2023/04/21 10:38:42;;;;;;;11.13;5.38;;;;;;;;;;6310074;22;20340;-87
2023/04/21 10:41:41;;;;;;;10.98;5.57;;;;;;;;;;6309345;22;20538;-88
2023/04/21 10:44:09;;;;;;;10.77;5.07;;;;;;;;;;6216017;23;20035;-87
2023/04/21 10:47:01;;;;;;;11.20;5.65;;;;;;;;;;6213260;23;20516;-87
2023/04/21 10:49:37;;;;;;;9.95;5.13;;;;;;;;;;6131500;23;20048;-87
2023/04/21 10:52:34;;;;;;;;;;;;;;;;;;6192225;23;20399;-87
2023/04/21 10:55:10;;;;;;;12.13;5.30;;;;;;;;;;6215580;23;20340;-87
2023/04/21 10:57:41;;;;;;;7.68;5.28;;;;;;;;;;6189967;23;20033;-87
2023/04/21 11:00:23;;;;;;;7.72;5.05;;;;;;;;;;6182217;23;20035;-87
2023/04/21 11:03:02;;;;;;;10.13;5.93;;;;;;;;;;6154810;23;20028;-87
2023/04/21 11:05:39;;;;;;;7.90;5.22;;;;;;;;;;6215356;23;20024;-87
2023/04/21 11:08:07;;;;;;;10.98;5.53;;;;;;;;;;6216288;23;20103;-87
2023/04/21 11:10:55;;;;;;;8.70;5.75;;;;;;;;;;6180863;23;20035;-89
2023/04/21 11:13:25;;;;;;;11.80;5.18;;;;;;;;;;6214558;23;20025;-90
2023/04/21 11:16:05;;;;;;;10.55;5.30;;;;;;;;;;6215422;23;20021;-89
2023/04/21 11:18:38;;;;;;;8.77;5.30;;;;;;;;;;6180065;23;20078;-90
2023/04/21 11:21:16;;;;;;;9.70;5.90;;;;;;;;;;6256529;22;20130;-90
2023/04/21 11:23:50;;;;;;;9.38;4.90;;;;;;;;;;6312450;22;20398;-90
2023/04/21 11:26:37;;;;;;;6.85;4.18;;;;;;;;;;6283719;22;20362;-90
2023/04/21 11:29:06;;;;;;;10.00;5.03;;;;;;;;;;6311445;22;20401;-90
2023/04/21 11:31:44;;;;;;;9.10;5.22;;;;;;;;;;6285684;22;20015;-91
2023/04/21 11:34:11;;;;;;;8.73;4.70;;;;;;;;;;6300989;22;20076;-91
2023/04/21 11:36:41;;;;;;;11.38;4.63;;;;;;;;;;6311901;22;20061;-90
2023/04/21 11:39:12;;;;;;;12.63;5.03;;;;;;;;;;6309342;22;20015;-90
2023/04/21 11:42:12;;;;;;;10.80;5.05;;;;;;;;;;6314435;22;20016;-90
2023/04/21 11:44:45;;;;;;;9.38;5.10;;;;;;;;;;6314748;22;20026;-91
2023/04/21 11:47:18;;;;;;;9.55;5.22;;;;;;;;;;6310563;22;20493;-91
2023/04/21 11:49:49;;;;;;;10.25;4.80;;;;;;;;;;6312385;22;20045;-90
2023/04/21 11:52:44;;;;;;;11.20;5.72;;;;;;;;;;6312392;22;20019;-90
2023/04/21 11:55:14;;;;;;;12.90;5.80;;;;;;;;;;6312220;22;20045;-90
2023/04/21 11:57:41;;;;;;;10.30;5.20;;;;;;;;;;6312368;22;20019;-90
2023/04/21 12:00:11;;;;;;;9.80;4.35;;;;;;;;;;6311791;22;20749;-90
2023/04/21 12:02:39;;;;;;;11.90;5.50;;;;;;;;;;6312584;22;20046;-90
2023/04/21 12:05:08;;;;;;;10.20;6.00;;;;;;;;;;6313812;22;20015;-91
2023/04/21 12:07:43;;;;;;;11.55;5.47;;;;;;;;;;6310228;22;20392;-91
2023/04/21 12:10:14;;;;;;;12.70;5.07;;;;;;;;;;6311900;22;20043;-91
2023/04/21 12:12:42;;;;;;;9.57;5.60;;;;;;;;;;6298796;22;20030;-91
2023/04/21 12:15:10;;;;;;;11.10;5.47;;;;;;;;;;6310104;22;20722;-91
2023/04/21 12:17:47;;;;;;;10.05;5.22;;;;;;;;;;6300303;22;20015;-91
2023/04/21 12:20:20;;;;;;;14.48;5.97;;;;;;;;;;6311408;22;20072;-91
2023/04/21 12:22:49;;;;;;;8.07;4.55;;;;;;;;;;6286729;22;20084;-91
2023/04/21 12:25:23;;;;;;;9.63;5.22;;;;;;;;;;6311820;22;20401;-91
2023/04/21 12:27:53;;;;;;;9.38;5.38;;;;;;;;;;6275156;22;20019;-90
2023/04/21 12:30:21;;;;;;;10.25;4.90;;;;;;;;;;6312592;22;20070;-91
2023/04/21 12:32:54;;;;;;;9.98;5.47;;;;;;;;;;6311007;22;20011;-91
2023/04/21 12:35:23;;;;;;;10.73;5.32;;;;;;;;;;6310444;22;20023;-90
2023/04/21 12:37:51;;;;;;;8.60;4.90;;;;;;;;;;6312072;22;20022;-90
2023/04/21 12:40:23;;;;;;;8.35;5.05;;;;;;;;;;6311668;22;20423;-90
2023/04/21 12:42:51;;;;;;;11.00;5.15;;;;;;;;;;6311306;22;20011;-90
2023/04/21 12:45:43;;;;;;;12.32;5.50;;;;;;;;;;6311942;22;20046;-89
2023/04/21 12:48:11;;;;;;;9.57;5.07;;;;;;;;;;6273804;22;20050;-89
2023/04/21 12:50:39;;;;;;;9.05;4.00;;;;;;;;;;6285272;22;20041;-89
2023/04/21 12:53:07;;;;;;;9.57;5.00;;;;;;;;;;6310656;22;20463;-90
2023/04/21 12:55:36;;;;;;;8.75;5.28;;;;;;;;;;6310756;22;20043;-90
2023/04/21 12:58:11;;;;;;;11.38;4.18;;;;;;;;;;6287245;22;20049;-87
2023/04/21 13:01:10;;;;;;;6.57;4.53;;;;;;;;;;6304457;22;20647;-87
2023/04/21 13:03:39;;;;;;;8.57;4.78;;;;;;;;;;6308789;22;20011;-87
2023/04/21 13:06:11;;;;;;;7.80;5.30;;;;;;;;;;6311889;22;20082;-87
2023/04/21 13:08:41;;;;;;;12.55;4.53;;;;;;;;;;6310866;22;20426;-87
2023/04/21 13:11:09;;;;;;;8.68;4.70;;;;;;;;;;6310727;22;20094;-87
2023/04/21 13:13:37;;;;;;;9.15;4.50;;;;;;;;;;6301386;22;20019;-87
2023/04/21 13:16:05;;;;;;;8.52;5.15;;;;;;;;;;6310321;22;20426;-87
2023/04/21 13:18:37;;;;;;;9.43;5.00;;;;;;;;;;6311041;22;20027;-87
2023/04/21 13:21:05;;;;;;;9.82;4.20;;;;;;;;;;6310690;22;20019;-87
2023/04/21 13:23:33;;;;;;;10.13;4.90;;;;;;;;;;6319241;22;20427;-88
2023/04/21 13:26:01;;;;;;;8.23;4.50;;;;;;;;;;6311353;22;20120;-89
2023/04/21 13:28:29;;;;;;;8.68;4.38;;;;;;;;;;6283344;22;20098;-89
2023/04/21 13:30:57;;;;;;;12.82;5.07;;;;;;;;;;6322424;22;20015;-89
2023/04/21 13:33:25;;;;;;;9.27;4.50;;;;;;;;;;6318540;22;20087;-89
2023/04/21 13:35:53;;;;;;;7.65;4.47;;;;;;;;;;6319462;22;20015;-89
2023/04/21 13:38:25;;;;;;;11.02;4.65;;;;;;;;;;6315915;22;20019;-89
2023/04/21 13:40:53;;;;;;;9.48;4.50;;;;;;;;;;6315651;22;20022;-89
2023/04/21 13:43:21;;;;;;;8.15;4.85;;;;;;;;;;6314032;22;20026;-89
2023/04/21 13:45:50;;;;;;;9.70;4.50;;;;;;;;;;6309317;22;20018;-89
2023/04/21 13:48:23;;;;;;;8.20;4.60;;;;;;;;;;6313323;22;20019;-89
2023/04/21 13:50:51;;;;;;;9.95;4.57;;;;;;;;;;6313616;22;20754;-89
2023/04/21 13:53:23;;;;;;;8.18;3.97;;;;;;;;;;6315426;22;20015;-89
2023/04/21 13:55:53;;;;;;;7.40;4.30;;;;;;;;;;6309097;22;20023;-88
2023/04/21 13:58:25;;;;;;;9.88;4.80;;;;;;;;;;6313018;22;20023;-89
2023/04/21 14:00:53;;;;;;;8.00;4.30;;;;;;;;;;6314307;22;20517;-89
2023/04/21 14:03:21;;;;;;;6.30;4.20;;;;;;;;;;6318605;22;20015;-89
2023/04/21 14:05:49;;;;;;;6.60;4.63;;;;;;;;;;6296506;22;20012;-89
2023/04/21 14:08:17;;;;;;;7.38;4.65;;;;;;;;;;6317758;22;20025;-89
2023/04/21 14:10:45;;;;;;;7.35;4.78;;;;;;;;;;6319281;22;20023;-90
2023/04/21 14:13:13;;;;;;;7.35;4.57;;;;;;;;;;6305361;22;20023;-90
2023/04/21 14:16:01;;;;;;;7.68;4.95;;;;;;;;;;6276440;22;20329;-90
2023/04/21 14:18:29;;;;;;;6.72;4.07;;;;;;;;;;6316666;22;20077;-90
2023/04/21 14:21:23;;;;;;;10.07;5.00;;;;;;;;;;6319149;22;20015;-89
2023/04/21 14:23:51;;;;;;;8.80;4.70;;;;;;;;;;6315284;22;20090;-89
2023/04/21 14:26:19;;;;;;;9.48;4.35;;;;;;;;;;6314803;22;20344;-89
2023/04/21 14:28:48;;;;;;;7.10;3.72;;;;;;;;;;6278338;22;20077;-89
2023/04/21 14:31:21;;;;;;;6.55;3.47;;;;;;;;;;6315601;22;20086;-89
2023/04/21 14:33:49;;;;;;;10.43;4.50;;;;;;;;;;6315476;22;20075;-90
2023/04/21 14:36:21;;;;;;;8.40;5.13;;;;;;;;;;6320188;22;20022;-90
2023/04/21 14:38:49;;;;;;;11.70;4.60;;;;;;;;;;6317444;22;20023;-89
2023/04/21 14:41:17;;;;;;;9.63;5.05;;;;;;;;;;6317103;22;20015;-91
2023/04/21 14:43:45;;;;;;;7.13;4.00;;;;;;;;;;6319545;22;20070;-89
2023/04/21 14:46:45;;;;;;;5.90;4.43;;;;;;;;;;6319973;22;20022;-89
2023/04/21 14:49:33;;;;;;;7.60;4.68;;;;;;;;;;6300174;22;20071;-89
2023/04/21 14:52:02;;;;;;;7.78;5.18;;;;;;;;;;6321506;22;20019;-89
2023/04/21 14:54:35;;;;;;;9.90;5.45;;;;;;;;;;6321467;22;20077;-89
2023/04/21 14:57:07;;;;;;;10.25;5.38;;;;;;;;;;6320563;22;20012;-90
2023/04/21 14:59:51;;;;;;;8.60;4.30;;;;;;;;;;6281601;22;20396;-89
2023/04/21 15:02:19;;;;;;;10.60;7.38;;;;;;;;;;6277940;22;20027;-89
2023/04/21 15:04:49;;;;;;;7.13;4.22;;;;;;;;;;6317561;22;20038;-89
2023/04/21 15:07:23;;;;;;;10.55;4.32;;;;;;;;;;6281197;22;20019;-89
2023/04/21 15:09:51;;;;;;;11.50;4.38;;;;;;;;;;6319038;22;20050;-89
2023/04/21 15:12:19;;;;;;;6.85;4.45;;;;;;;;;;6320269;22;20049;-90